createdAt,value
2022-07-25T00:00:10.929Z,52.47
2022-07-25T00:01:13.045Z,52.34
2022-07-25T00:02:16.961Z,52.99
2022-07-25T00:03:20.385Z,53.01
2022-07-25T00:04:24.107Z,52.99
2022-07-25T00:05:26.121Z,52.58
2022-07-25T00:06:29.136Z,52.51
2022-07-25T00:07:31.126Z,52.51
2022-07-25T00:08:34.239Z,52.96
2022-07-25T00:09:36.287Z,52.81
2022-07-25T00:10:39.205Z,52.93
2022-07-25T00:11:41.502Z,52.79
2022-07-25T00:12:44.483Z,52.85
2022-07-25T00:13:47.151Z,53.20
2022-07-25T00:14:50.117Z,53.18
2022-07-25T00:15:52.143Z,52.96
2022-07-25T00:16:55.158Z,53.12
2022-07-25T00:17:57.092Z,52.82
2022-07-25T00:19:01.408Z,53.20
2022-07-25T00:20:04.656Z,52.63
2022-07-25T00:21:07.795Z,52.68
2022-07-25T00:22:09.990Z,52.84
2022-07-25T00:23:13.152Z,53.25
2022-07-25T00:24:15.161Z,52.99
2022-07-25T00:25:18.068Z,52.84
2022-07-25T00:26:20.265Z,53.12
2022-07-25T00:27:23.202Z,52.99
2022-07-25T00:28:25.366Z,52.99
2022-07-25T00:29:28.316Z,53.19
2022-07-25T00:30:30.318Z,53.21
2022-07-25T00:31:33.459Z,53.38
2022-07-25T00:32:35.436Z,52.79
2022-07-25T00:33:40.138Z,53.41
2022-07-25T00:34:43.472Z,53.08
2022-07-25T00:35:46.696Z,52.87
2022-07-25T00:36:48.718Z,53.22
2022-07-25T00:37:51.627Z,53.26
2022-07-25T00:38:53.681Z,52.87
2022-07-25T00:39:56.684Z,52.97
2022-07-25T00:40:58.679Z,53.14
2022-07-25T00:42:01.776Z,53.17
2022-07-25T00:43:04.204Z,52.92
2022-07-25T00:44:07.645Z,53.37
2022-07-25T00:45:10.952Z,52.79
2022-07-25T00:46:14.560Z,53.08
2022-07-25T00:47:22.146Z,53.06
2022-07-25T00:48:24.281Z,53.31
2022-07-25T00:49:27.484Z,53.14
2022-07-25T00:50:31.103Z,53.05
2022-07-25T00:51:34.802Z,53.35
2022-07-25T00:52:36.900Z,53.13
2022-07-25T00:53:40.879Z,53.19
2022-07-25T00:54:43.094Z,53.20
2022-07-25T00:55:48.686Z,53.05
2022-07-25T00:56:51.560Z,53.44
2022-07-25T00:57:54.510Z,53.00
2022-07-25T00:58:56.765Z,52.97
2022-07-25T00:59:59.883Z,53.16
2022-07-25T01:01:02.713Z,53.45
2022-07-25T01:02:05.821Z,53.43
2022-07-25T01:03:08.035Z,53.34
2022-07-25T01:04:11.027Z,53.38
2022-07-25T01:05:13.191Z,53.61
2022-07-25T01:06:17.772Z,53.45
2022-07-25T01:07:19.986Z,53.53
2022-07-25T01:08:23.624Z,53.42
2022-07-25T01:09:26.497Z,53.49
2022-07-25T01:10:30.894Z,53.71
2022-07-25T01:11:33.296Z,53.63
2022-07-25T01:12:48.188Z,53.72
2022-07-25T01:13:51.280Z,53.46
2022-07-25T01:14:53.230Z,53.75
2022-07-25T01:15:56.370Z,53.46
2022-07-25T01:16:58.660Z,53.85
2022-07-25T01:18:01.918Z,53.68
2022-07-25T01:19:04.064Z,53.66
2022-07-25T01:20:08.052Z,53.64
2022-07-25T01:21:11.532Z,53.75
2022-07-25T01:22:14.601Z,53.69
2022-07-25T01:23:16.554Z,53.74
2022-07-25T01:24:19.492Z,53.64
2022-07-25T01:25:22.173Z,53.54
2022-07-25T01:26:25.221Z,53.80
2022-07-25T01:27:27.121Z,53.93
2022-07-25T01:28:30.160Z,53.63
2022-07-25T01:29:33.226Z,53.72
2022-07-25T01:30:38.151Z,54.19
2022-07-25T01:31:41.315Z,54.28
2022-07-25T01:32:44.419Z,53.93
2022-07-25T01:33:47.395Z,53.90
2022-07-25T01:34:49.375Z,53.74
2022-07-25T01:35:52.420Z,53.79
2022-07-25T01:36:55.784Z,53.71
2022-07-25T01:37:58.788Z,53.92
2022-07-25T01:39:00.826Z,53.83
2022-07-25T01:40:04.332Z,53.48
2022-07-25T01:41:06.538Z,53.97
2022-07-25T01:42:09.513Z,53.88
2022-07-25T01:43:11.611Z,54.17
2022-07-25T01:44:14.577Z,53.69
2022-07-25T01:45:16.574Z,53.77
2022-07-25T01:46:19.622Z,53.76
2022-07-25T01:47:21.630Z,53.85
2022-07-25T01:48:24.799Z,53.94
2022-07-25T01:49:26.865Z,53.72
2022-07-25T01:50:29.811Z,53.76
2022-07-25T01:51:31.966Z,53.97
2022-07-25T01:52:37.172Z,54.56
2022-07-25T01:53:39.214Z,53.93
2022-07-25T01:54:43.453Z,54.32
2022-07-25T01:55:46.343Z,54.34
2022-07-25T01:56:50.661Z,54.36
2022-07-25T01:57:52.723Z,54.35
2022-07-25T01:58:55.726Z,54.22
2022-07-25T01:59:57.775Z,54.14
2022-07-25T02:01:00.869Z,54.26
2022-07-25T02:02:02.979Z,54.07
2022-07-25T02:03:23.553Z,53.96
2022-07-25T02:04:26.565Z,53.88
2022-07-25T02:05:28.525Z,54.26
2022-07-25T02:06:31.621Z,54.04
2022-07-25T02:07:36.158Z,54.10
2022-07-25T02:08:38.207Z,54.17
2022-07-25T02:09:42.016Z,54.25
2022-07-25T02:10:44.020Z,54.00
2022-07-25T02:11:47.121Z,54.00
2022-07-25T02:12:49.065Z,54.14
2022-07-25T02:13:52.436Z,54.11
2022-07-25T02:14:54.407Z,53.98
2022-07-25T02:15:57.471Z,54.19
2022-07-25T02:16:59.633Z,54.13
2022-07-25T02:18:03.275Z,54.00
2022-07-25T02:19:05.459Z,54.15
2022-07-25T02:20:10.100Z,54.28
2022-07-25T02:21:14.276Z,54.23
2022-07-25T02:22:16.784Z,54.40
2022-07-25T02:23:21.111Z,54.53
2022-07-25T02:24:23.133Z,54.45
2022-07-25T02:25:26.316Z,54.96
2022-07-25T02:26:28.317Z,54.71
2022-07-25T02:27:31.349Z,54.91
2022-07-25T02:28:33.422Z,54.65
2022-07-25T02:29:36.690Z,54.66
2022-07-25T02:30:38.935Z,54.76
2022-07-25T02:31:42.091Z,54.99
2022-07-25T02:32:44.039Z,54.83
2022-07-25T02:33:47.197Z,54.88
2022-07-25T02:34:49.198Z,54.81
2022-07-25T02:35:52.186Z,54.80
2022-07-25T02:36:54.258Z,54.96
2022-07-25T02:37:57.299Z,54.93
2022-07-25T02:39:02.154Z,54.68
2022-07-25T02:40:05.833Z,55.13
2022-07-25T02:41:08.146Z,55.10
2022-07-25T02:42:11.195Z,54.75
2022-07-25T02:43:13.332Z,54.67
2022-07-25T02:44:18.590Z,54.54
2022-07-25T02:45:20.739Z,54.76
2022-07-25T02:46:23.819Z,54.78
2022-07-25T02:47:25.879Z,54.82
2022-07-25T02:48:28.844Z,55.13
2022-07-25T02:49:30.821Z,55.03
2022-07-25T02:50:33.979Z,54.81
2022-07-25T02:51:35.851Z,55.10
2022-07-25T02:52:38.838Z,54.98
2022-07-25T02:53:56.585Z,54.93
2022-07-25T02:55:06.113Z,55.01
2022-07-25T02:56:11.452Z,54.97
2022-07-25T02:57:17.211Z,54.85
2022-07-25T02:58:19.158Z,54.87
2022-07-25T02:59:22.088Z,55.00
2022-07-25T03:00:24.406Z,55.03
2022-07-25T03:01:27.761Z,55.15
2022-07-25T03:02:29.788Z,55.09
2022-07-25T03:03:32.915Z,55.21
2022-07-25T03:04:34.958Z,55.26
2022-07-25T03:05:38.078Z,54.99
2022-07-25T03:06:40.078Z,55.08
2022-07-25T03:07:45.138Z,54.96
2022-07-25T03:08:47.097Z,55.01
2022-07-25T03:09:50.214Z,55.15
2022-07-25T03:10:53.515Z,55.11
2022-07-25T03:11:56.703Z,54.92
2022-07-25T03:12:58.659Z,54.57
2022-07-25T03:14:01.923Z,55.16
2022-07-25T03:15:06.277Z,54.97
2022-07-25T03:16:09.811Z,55.23
2022-07-25T03:17:11.960Z,54.88
2022-07-25T03:18:14.887Z,54.95
2022-07-25T03:19:17.207Z,55.07
2022-07-25T03:20:20.209Z,55.06
2022-07-25T03:21:22.184Z,55.16
2022-07-25T03:22:25.800Z,55.13
2022-07-25T03:23:28.401Z,55.29
2022-07-25T03:24:31.546Z,55.35
2022-07-25T03:25:33.693Z,55.16
2022-07-25T03:26:38.204Z,55.17
2022-07-25T03:27:41.185Z,55.00
2022-07-25T03:28:43.118Z,55.19
2022-07-25T03:29:46.652Z,55.19
2022-07-25T03:30:48.679Z,55.29
2022-07-25T03:31:51.698Z,55.07
2022-07-25T03:32:55.079Z,55.38
2022-07-25T03:33:58.042Z,55.12
2022-07-25T03:35:00.031Z,55.06
2022-07-25T03:36:03.062Z,55.00
2022-07-25T03:37:06.813Z,55.38
2022-07-25T03:38:08.742Z,55.05
2022-07-25T03:39:11.697Z,54.89
2022-07-25T03:40:14.507Z,55.24
2022-07-25T03:41:19.228Z,55.00
2022-07-25T03:42:26.730Z,55.14
2022-07-25T03:43:31.571Z,55.28
2022-07-25T03:44:33.495Z,55.05
2022-07-25T03:45:36.449Z,55.09
2022-07-25T03:46:39.520Z,55.17
2022-07-25T03:47:41.455Z,55.12
2022-07-25T03:48:44.514Z,55.20
2022-07-25T03:49:47.536Z,55.10
2022-07-25T03:50:49.805Z,55.32
2022-07-25T03:51:52.817Z,55.05
2022-07-25T03:52:55.540Z,55.03
2022-07-25T03:54:05.264Z,55.15
2022-07-25T03:55:10.809Z,55.23
2022-07-25T03:56:12.772Z,54.95
2022-07-25T03:57:15.707Z,55.00
2022-07-25T03:58:19.037Z,55.04
2022-07-25T03:59:22.762Z,55.07
2022-07-25T04:00:24.861Z,55.17
2022-07-25T04:01:28.992Z,55.10
2022-07-25T04:02:31.073Z,54.93
2022-07-25T04:03:34.483Z,55.03
2022-07-25T04:04:36.432Z,55.07
2022-07-25T04:05:43.041Z,55.24
2022-07-25T04:06:50.209Z,55.25
2022-07-25T04:07:53.140Z,54.90
2022-07-25T04:08:56.152Z,55.13
2022-07-25T04:09:59.336Z,55.22
2022-07-25T04:11:01.296Z,55.33
2022-07-25T04:12:04.610Z,54.92
2022-07-25T04:13:06.639Z,55.03
2022-07-25T04:14:11.976Z,55.34
2022-07-25T04:15:14.088Z,55.35
2022-07-25T04:16:22.144Z,55.30
2022-07-25T04:17:25.760Z,55.23
2022-07-25T04:18:28.997Z,55.15
2022-07-25T04:19:31.409Z,55.20
2022-07-25T04:20:37.637Z,55.07
2022-07-25T04:21:39.834Z,55.23
2022-07-25T04:22:46.750Z,55.13
2022-07-25T04:23:49.741Z,55.32
2022-07-25T04:24:52.742Z,55.50
2022-07-25T04:25:54.806Z,55.44
2022-07-25T04:26:57.880Z,55.61
2022-07-25T04:27:59.851Z,55.40
2022-07-25T04:29:03.712Z,55.41
2022-07-25T04:30:08.887Z,55.77
2022-07-25T04:31:12.023Z,55.65
2022-07-25T04:32:21.411Z,55.81
2022-07-25T04:33:25.946Z,55.56
2022-07-25T04:34:28.947Z,55.48
2022-07-25T04:35:31.049Z,55.45
2022-07-25T04:36:34.235Z,55.72
2022-07-25T04:37:37.408Z,55.60
2022-07-25T04:38:40.344Z,55.53
2022-07-25T04:39:42.290Z,55.65
2022-07-25T04:40:45.460Z,55.63
2022-07-25T04:41:47.839Z,55.78
2022-07-25T04:42:50.831Z,55.59
2022-07-25T04:43:53.099Z,55.53
2022-07-25T04:44:56.101Z,55.69
2022-07-25T04:45:59.840Z,55.48
2022-07-25T04:47:02.811Z,55.79
2022-07-25T04:48:05.590Z,55.55
2022-07-25T04:49:08.600Z,55.97
2022-07-25T04:50:10.665Z,55.91
2022-07-25T04:51:13.511Z,55.71
2022-07-25T04:52:15.469Z,55.55
2022-07-25T04:53:18.470Z,55.69
2022-07-25T04:54:20.512Z,55.59
2022-07-25T04:55:23.675Z,55.74
2022-07-25T04:56:25.620Z,55.99
2022-07-25T04:57:28.618Z,55.66
2022-07-25T04:58:31.560Z,55.46
2022-07-25T04:59:34.539Z,55.74
2022-07-25T05:00:36.752Z,55.58
2022-07-25T05:01:41.162Z,56.01
2022-07-25T05:02:43.645Z,55.54
2022-07-25T05:03:49.893Z,55.57
2022-07-25T05:04:53.264Z,55.87
2022-07-25T05:05:56.353Z,55.40
2022-07-25T05:06:59.318Z,55.82
2022-07-25T05:08:02.228Z,55.52
2022-07-25T05:09:04.184Z,55.59
2022-07-25T05:10:07.922Z,55.50
2022-07-25T05:11:11.019Z,55.69
2022-07-25T05:12:12.934Z,55.82
2022-07-25T05:13:16.303Z,55.45
2022-07-25T05:14:18.262Z,55.22
2022-07-25T05:15:24.128Z,55.30
2022-07-25T05:16:26.163Z,54.54
2022-07-25T05:17:30.584Z,54.87
2022-07-25T05:18:33.980Z,54.67
2022-07-25T05:19:37.180Z,55.07
2022-07-25T05:20:41.209Z,55.04
2022-07-25T05:21:43.190Z,55.17
2022-07-25T05:22:46.118Z,54.68
2022-07-25T05:23:49.078Z,54.42
2022-07-25T05:24:51.142Z,54.28
2022-07-25T05:25:54.020Z,54.47
2022-07-25T05:26:56.110Z,54.81
2022-07-25T05:27:59.125Z,54.22
2022-07-25T05:29:01.049Z,55.11
2022-07-25T05:30:05.810Z,54.55
2022-07-25T05:31:07.773Z,54.80
2022-07-25T05:32:11.016Z,55.11
2022-07-25T05:33:15.590Z,54.63
2022-07-25T05:34:17.802Z,54.60
2022-07-25T05:35:20.769Z,54.77
2022-07-25T05:36:22.804Z,54.67
2022-07-25T05:37:26.037Z,54.08
2022-07-25T05:38:29.081Z,54.95
2022-07-25T05:39:32.041Z,54.96
2022-07-25T05:40:35.101Z,54.39
2022-07-25T05:41:37.008Z,54.93
2022-07-25T05:42:40.247Z,53.98
2022-07-25T05:43:46.150Z,54.28
2022-07-25T05:44:48.105Z,54.18
2022-07-25T05:45:51.311Z,55.13
2022-07-25T05:46:53.308Z,55.13
2022-07-25T05:47:56.321Z,54.91
2022-07-25T05:48:59.806Z,54.77
2022-07-25T05:50:02.948Z,54.50
2022-07-25T05:51:04.926Z,54.49
2022-07-25T05:52:12.581Z,55.50
2022-07-25T05:53:16.109Z,54.53
2022-07-25T05:54:18.197Z,54.78
2022-07-25T05:55:21.152Z,54.78
2022-07-25T05:56:23.053Z,55.72
2022-07-25T05:57:26.105Z,54.40
2022-07-25T05:58:30.023Z,55.01
2022-07-25T05:59:33.313Z,55.92
2022-07-25T06:00:36.577Z,54.46
2022-07-25T06:01:38.602Z,55.79
2022-07-25T06:02:41.759Z,54.83
2022-07-25T06:03:44.041Z,54.87
2022-07-25T06:04:48.335Z,55.08
2022-07-25T06:05:50.363Z,54.39
2022-07-25T06:06:53.344Z,54.63
2022-07-25T06:07:55.464Z,55.07
2022-07-25T06:08:58.582Z,54.84
2022-07-25T06:10:01.932Z,55.12
2022-07-25T06:11:05.975Z,54.86
2022-07-25T06:12:10.160Z,55.04
2022-07-25T06:13:14.522Z,54.21
2022-07-25T06:14:16.594Z,54.00
2022-07-25T06:15:22.821Z,53.93
2022-07-25T06:16:28.811Z,55.09
2022-07-25T06:17:32.724Z,54.14
2022-07-25T06:18:35.143Z,55.43
2022-07-25T06:19:38.333Z,55.14
2022-07-25T06:20:41.874Z,55.56
2022-07-25T06:21:44.988Z,55.44
2022-07-25T06:22:46.977Z,55.59
2022-07-25T06:23:49.985Z,55.27
2022-07-25T06:24:52.052Z,55.72
2022-07-25T06:25:55.081Z,54.07
2022-07-25T06:26:58.363Z,54.64
2022-07-25T06:28:01.091Z,55.63
2022-07-25T06:29:04.150Z,55.59
2022-07-25T06:30:18.790Z,55.04
2022-07-25T06:31:23.657Z,54.75
2022-07-25T06:32:25.662Z,55.24
2022-07-25T06:33:28.734Z,55.53
2022-07-25T06:34:31.768Z,55.36
2022-07-25T06:35:34.704Z,56.24
2022-07-25T06:36:39.230Z,56.01
2022-07-25T06:37:41.402Z,55.98
2022-07-25T06:38:44.332Z,55.22
2022-07-25T06:39:46.395Z,55.71
2022-07-25T06:40:49.561Z,56.00
2022-07-25T06:41:51.770Z,55.54
2022-07-25T06:42:55.047Z,55.80
2022-07-25T06:43:57.044Z,55.51
2022-07-25T06:45:00.129Z,56.00
2022-07-25T06:46:02.776Z,55.68
2022-07-25T06:47:10.579Z,55.90
2022-07-25T06:48:12.676Z,55.31
2022-07-25T06:49:15.892Z,55.35
2022-07-25T06:50:21.154Z,55.81
2022-07-25T06:51:24.089Z,55.45
2022-07-25T06:52:28.766Z,55.61
2022-07-25T06:53:31.717Z,55.18
2022-07-25T06:54:34.995Z,55.23
2022-07-25T06:55:38.095Z,55.30
2022-07-25T06:56:40.033Z,55.58
2022-07-25T06:57:44.034Z,55.68
2022-07-25T06:58:46.954Z,55.04
2022-07-25T06:59:49.125Z,55.46
2022-07-25T07:00:52.462Z,54.88
2022-07-25T07:01:54.605Z,55.58
2022-07-25T07:03:01.293Z,55.17
2022-07-25T07:04:05.903Z,54.95
2022-07-25T07:05:09.071Z,54.86
2022-07-25T07:06:12.068Z,55.34
2022-07-25T07:07:14.082Z,55.24
2022-07-25T07:08:18.714Z,55.56
2022-07-25T07:09:20.679Z,54.94
2022-07-25T07:10:24.396Z,55.75
2022-07-25T07:11:26.332Z,55.65
2022-07-25T07:12:29.344Z,55.11
2022-07-25T07:13:32.581Z,55.40
2022-07-25T07:14:34.566Z,55.30
2022-07-25T07:15:38.149Z,54.15
2022-07-25T07:16:41.389Z,55.06
2022-07-25T07:17:44.670Z,54.50
2022-07-25T07:18:49.563Z,54.90
2022-07-25T07:19:51.852Z,54.78
2022-07-25T07:20:55.563Z,54.67
2022-07-25T07:21:57.818Z,54.38
2022-07-25T07:23:02.006Z,53.88
2022-07-25T07:24:09.402Z,54.23
2022-07-25T07:25:28.564Z,54.37
2022-07-25T07:26:30.780Z,54.52
2022-07-25T07:27:33.913Z,54.43
2022-07-25T07:28:36.824Z,54.19
2022-07-25T07:29:38.939Z,54.93
2022-07-25T07:31:14.655Z,55.03
2022-07-25T07:32:06.587Z,54.13
2022-07-25T07:33:08.725Z,54.06
2022-07-25T07:34:16.242Z,54.62
2022-07-25T07:35:19.321Z,54.88
2022-07-25T07:36:22.784Z,54.54
2022-07-25T07:37:24.825Z,54.34
2022-07-25T07:38:28.318Z,54.73
2022-07-25T07:39:32.626Z,54.16
2022-07-25T07:40:35.738Z,54.60
2022-07-25T07:41:37.777Z,54.88
2022-07-25T07:42:42.170Z,54.66
2022-07-25T07:43:45.538Z,54.37
2022-07-25T07:44:47.753Z,55.04
2022-07-25T07:45:50.875Z,54.82
2022-07-25T07:46:53.962Z,54.72
2022-07-25T07:47:56.409Z,54.57
2022-07-25T07:48:59.412Z,55.45
2022-07-25T07:50:01.549Z,55.25
2022-07-25T07:51:06.019Z,54.41
2022-07-25T07:52:08.035Z,54.37
2022-07-25T07:53:11.117Z,54.64
2022-07-25T07:54:31.925Z,55.04
2022-07-25T07:55:44.578Z,55.02
2022-07-25T07:56:46.636Z,54.61
2022-07-25T07:57:49.694Z,54.55
2022-07-25T07:58:51.821Z,54.95
2022-07-25T07:59:54.797Z,54.13
2022-07-25T08:00:59.567Z,54.44
2022-07-25T08:02:02.042Z,54.41
2022-07-25T08:03:06.579Z,55.15
2022-07-25T08:04:08.668Z,54.03
2022-07-25T08:05:11.647Z,53.52
2022-07-25T08:06:14.655Z,53.77
2022-07-25T08:07:16.843Z,53.70
2022-07-25T08:08:20.288Z,54.19
2022-07-25T08:09:22.373Z,53.84
2022-07-25T08:10:27.568Z,54.00
2022-07-25T08:11:31.979Z,53.59
2022-07-25T08:12:40.279Z,53.16
2022-07-25T08:13:43.271Z,53.45
2022-07-25T08:14:45.336Z,53.46
2022-07-25T08:15:51.254Z,53.73
2022-07-25T08:16:53.487Z,53.68
2022-07-25T08:17:56.823Z,53.98
2022-07-25T08:19:00.081Z,53.75
2022-07-25T08:20:35.268Z,53.54
2022-07-25T08:21:30.295Z,53.63
2022-07-25T08:22:36.825Z,53.46
2022-07-25T08:23:39.767Z,54.28
2022-07-25T08:24:41.729Z,53.59
2022-07-25T08:25:45.389Z,53.37
2022-07-25T08:26:48.890Z,52.68
2022-07-25T08:27:53.236Z,52.67
2022-07-25T08:29:17.634Z,52.97
2022-07-25T08:30:19.286Z,52.61
2022-07-25T08:31:22.574Z,53.15
2022-07-25T08:32:24.687Z,52.99
2022-07-25T08:33:28.348Z,53.33
2022-07-25T08:34:30.497Z,52.96
2022-07-25T08:35:35.884Z,52.89
2022-07-25T08:36:37.975Z,53.08
2022-07-25T08:37:40.982Z,52.60
2022-07-25T08:38:42.978Z,52.01
2022-07-25T08:39:46.143Z,52.43
2022-07-25T08:40:49.280Z,52.57
2022-07-25T08:41:52.764Z,52.14
2022-07-25T08:42:56.632Z,52.13
2022-07-25T08:43:59.312Z,51.86
2022-07-25T08:45:06.555Z,51.65
2022-07-25T08:46:09.754Z,51.87
2022-07-25T08:47:15.691Z,51.96
2022-07-25T08:48:20.301Z,52.37
2022-07-25T08:49:22.572Z,52.71
2022-07-25T08:50:27.646Z,52.00
2022-07-25T08:51:30.004Z,52.16
2022-07-25T08:52:35.404Z,51.90
2022-07-25T08:53:37.711Z,52.10
2022-07-25T08:54:41.036Z,52.37
2022-07-25T08:55:45.941Z,51.88
2022-07-25T08:56:48.223Z,52.02
2022-07-25T08:57:54.484Z,51.57
2022-07-25T08:58:58.970Z,51.58
2022-07-25T09:00:01.543Z,52.01
2022-07-25T09:01:04.741Z,51.63
2022-07-25T09:02:08.499Z,50.80
2022-07-25T09:03:12.175Z,50.65
2022-07-25T09:04:14.483Z,51.30
2022-07-25T09:05:20.121Z,51.42
2022-07-25T09:06:23.609Z,50.39
2022-07-25T09:07:33.437Z,50.24
2022-07-25T09:08:36.447Z,49.98
2022-07-25T09:09:39.527Z,51.01
2022-07-25T09:10:47.927Z,50.76
2022-07-25T09:11:50.586Z,50.77
2022-07-25T09:12:56.791Z,50.50
2022-07-25T09:14:01.569Z,50.85
2022-07-25T09:15:05.319Z,51.30
2022-07-25T09:16:10.709Z,51.61
2022-07-25T09:17:22.198Z,50.97
2022-07-25T09:18:28.318Z,50.80
2022-07-25T09:19:31.802Z,51.17
2022-07-25T09:20:39.636Z,51.24
2022-07-25T09:21:45.676Z,50.32
2022-07-25T09:22:48.415Z,50.24
2022-07-25T09:23:51.365Z,50.31
2022-07-25T09:24:54.544Z,50.51
2022-07-25T09:26:02.839Z,50.83
2022-07-25T09:27:12.621Z,49.90
2022-07-25T09:28:19.417Z,50.99
2022-07-25T09:29:24.837Z,51.20
2022-07-25T09:30:28.323Z,50.72
2022-07-25T09:31:32.975Z,50.51
2022-07-25T09:32:36.064Z,50.58
2022-07-25T09:33:46.740Z,50.96
2022-07-25T09:34:51.023Z,50.89
2022-07-25T09:35:54.541Z,51.64
2022-07-25T09:36:57.965Z,50.61
2022-07-25T09:38:11.579Z,50.16
2022-07-25T09:39:13.553Z,49.46
2022-07-25T09:40:16.918Z,49.59
2022-07-25T09:41:18.963Z,49.73
2022-07-25T09:42:25.614Z,49.90
2022-07-25T09:43:39.406Z,50.05
2022-07-25T09:44:41.676Z,49.88
2022-07-25T09:45:51.139Z,49.73
2022-07-25T09:46:53.166Z,50.15
2022-07-25T09:47:57.852Z,50.84
2022-07-25T09:49:00.934Z,50.66
2022-07-25T09:50:06.122Z,49.59
2022-07-25T09:51:09.313Z,49.27
2022-07-25T09:52:12.252Z,49.38
2022-07-25T09:53:15.519Z,49.02
2022-07-25T09:54:17.810Z,48.90
2022-07-25T09:55:21.466Z,49.28
2022-07-25T09:56:23.458Z,48.78
2022-07-25T09:57:26.747Z,48.75
2022-07-25T09:58:31.103Z,49.18
2022-07-25T09:59:35.461Z,49.14
2022-07-25T10:00:42.293Z,49.44
2022-07-25T10:01:51.054Z,49.81
2022-07-25T10:03:10.090Z,49.99
2022-07-25T10:04:19.749Z,50.54
2022-07-25T10:05:38.403Z,50.63
2022-07-25T10:06:49.568Z,50.85
2022-07-25T10:07:54.524Z,50.20
2022-07-25T10:08:58.533Z,50.25
2022-07-25T10:10:00.697Z,50.48
2022-07-25T10:11:04.591Z,50.53
2022-07-25T10:12:08.671Z,49.85
2022-07-25T10:13:15.221Z,48.08
2022-07-25T10:14:18.158Z,48.20
2022-07-25T10:15:22.750Z,48.02
2022-07-25T10:16:27.535Z,47.34
2022-07-25T10:17:29.657Z,47.28
2022-07-25T10:18:33.496Z,47.03
2022-07-25T10:19:50.909Z,48.22
2022-07-25T10:20:57.512Z,48.20
2022-07-25T10:21:59.544Z,48.10
2022-07-25T10:23:02.792Z,46.55
2022-07-25T10:24:08.172Z,46.06
2022-07-25T10:25:13.369Z,46.26
2022-07-25T10:26:19.477Z,46.57
2022-07-25T10:27:24.707Z,46.82
2022-07-25T10:28:37.233Z,46.76
2022-07-25T10:29:41.837Z,45.71
2022-07-25T10:30:45.253Z,46.07
2022-07-25T10:31:51.407Z,44.92
2022-07-25T10:32:58.325Z,45.30
2022-07-25T10:34:04.681Z,45.79
2022-07-25T10:35:16.187Z,44.72
2022-07-25T10:36:21.791Z,44.56
2022-07-25T10:37:28.052Z,44.60
2022-07-25T10:38:31.113Z,45.23
2022-07-25T10:39:38.985Z,45.50
2022-07-25T10:40:46.441Z,44.69
2022-07-25T10:41:51.998Z,44.02
2022-07-25T10:42:59.185Z,43.49
2022-07-25T10:44:02.985Z,44.64
2022-07-25T10:45:09.505Z,44.22
2022-07-25T10:46:15.629Z,44.47
2022-07-25T10:47:18.264Z,44.51
2022-07-25T10:48:26.177Z,44.57
2022-07-25T10:49:36.375Z,43.82
2022-07-25T10:50:55.765Z,43.88
2022-07-25T10:52:03.237Z,43.41
2022-07-25T10:53:09.149Z,42.67
2022-07-25T10:54:16.902Z,43.11
2022-07-25T10:55:23.804Z,42.86
2022-07-25T10:56:29.201Z,42.18
2022-07-25T10:57:32.439Z,42.44
2022-07-25T10:58:50.925Z,41.57
2022-07-25T10:59:53.998Z,41.49
2022-07-25T11:00:56.074Z,41.59
2022-07-25T11:02:01.146Z,42.54
2022-07-25T11:03:04.216Z,41.94
2022-07-25T11:04:16.304Z,41.65
2022-07-25T11:05:18.359Z,41.26
2022-07-25T11:06:32.245Z,41.71
2022-07-25T11:07:36.920Z,42.11
2022-07-25T11:08:39.135Z,41.99
2022-07-25T11:09:43.414Z,41.67
2022-07-25T11:10:52.596Z,41.39
2022-07-25T11:11:57.268Z,42.27
2022-07-25T11:12:59.259Z,41.84
2022-07-25T11:14:02.360Z,42.19
2022-07-25T11:15:08.235Z,40.56
2022-07-25T11:16:10.977Z,40.55
2022-07-25T11:17:18.586Z,40.77
2022-07-25T11:18:31.261Z,41.50
2022-07-25T11:19:35.145Z,40.75
2022-07-25T11:20:40.198Z,41.05
2022-07-25T11:21:46.253Z,39.88
2022-07-25T11:22:53.893Z,40.70
2022-07-25T11:23:56.875Z,40.89
2022-07-25T11:25:01.197Z,40.58
2022-07-25T11:26:11.025Z,39.90
2022-07-25T11:27:22.232Z,40.69
2022-07-25T11:28:24.187Z,41.22
2022-07-25T11:29:28.009Z,41.61
2022-07-25T11:30:31.160Z,41.87
2022-07-25T11:31:35.664Z,39.83
2022-07-25T11:32:44.352Z,40.87
2022-07-25T11:33:49.183Z,41.22
2022-07-25T11:34:54.610Z,41.06
2022-07-25T11:35:58.227Z,41.29
2022-07-25T11:37:04.461Z,41.02
2022-07-25T11:38:07.811Z,40.96
2022-07-25T11:39:15.508Z,40.71
2022-07-25T11:40:22.741Z,39.92
2022-07-25T11:41:31.980Z,39.16
2022-07-25T11:42:40.868Z,38.87
2022-07-25T11:43:50.624Z,39.19
2022-07-25T11:44:53.211Z,39.94
2022-07-25T11:46:01.482Z,38.31
2022-07-25T11:47:06.262Z,39.75
2022-07-25T11:48:11.280Z,39.29
2022-07-25T11:49:15.014Z,39.08
2022-07-25T11:50:17.322Z,38.89
2022-07-25T11:51:21.074Z,37.98
2022-07-25T11:52:25.194Z,37.62
2022-07-25T11:53:29.288Z,38.68
2022-07-25T11:54:32.246Z,39.30
2022-07-25T11:55:37.334Z,38.34
2022-07-25T11:56:42.909Z,38.66
2022-07-25T11:57:48.205Z,39.03
2022-07-25T11:58:58.094Z,38.71
2022-07-25T12:00:02.581Z,39.03
2022-07-25T12:01:16.520Z,37.81
2022-07-25T12:02:23.925Z,38.81
2022-07-25T12:03:39.045Z,40.02
2022-07-25T12:04:42.122Z,38.28
2022-07-25T12:05:45.636Z,38.65
2022-07-25T12:06:50.053Z,39.47
2022-07-25T12:07:55.871Z,40.03
2022-07-25T12:08:58.498Z,39.44
2022-07-25T12:10:01.430Z,38.96
2022-07-25T12:11:03.635Z,38.43
2022-07-25T12:12:07.189Z,39.03
2022-07-25T12:13:10.585Z,39.29
2022-07-25T12:14:14.217Z,40.30
2022-07-25T12:15:19.224Z,40.03
2022-07-25T12:16:22.273Z,39.73
2022-07-25T12:17:24.356Z,38.25
2022-07-25T12:18:29.273Z,38.10
2022-07-25T12:19:32.316Z,38.14
2022-07-25T12:20:38.626Z,37.82
2022-07-25T12:21:41.630Z,39.07
2022-07-25T12:22:44.065Z,38.65
2022-07-25T12:23:48.225Z,38.08
2022-07-25T12:24:51.533Z,37.68
2022-07-25T12:25:54.851Z,38.42
2022-07-25T12:26:56.879Z,38.40
2022-07-25T12:28:01.158Z,39.30
2022-07-25T12:29:04.750Z,39.38
2022-07-25T12:30:09.045Z,39.57
2022-07-25T12:31:12.167Z,38.91
2022-07-25T12:32:14.891Z,38.53
2022-07-25T12:33:18.267Z,38.72
2022-07-25T12:34:22.767Z,39.06
2022-07-25T12:35:26.808Z,39.54
2022-07-25T12:36:29.806Z,37.92
2022-07-25T12:37:32.446Z,37.95
2022-07-25T12:38:35.555Z,38.63
2022-07-25T12:39:37.734Z,38.76
2022-07-25T12:40:40.844Z,39.01
2022-07-25T12:41:43.172Z,38.88
2022-07-25T12:42:46.967Z,38.96
2022-07-25T12:43:49.757Z,38.50
2022-07-25T12:44:52.938Z,39.15
2022-07-25T12:45:55.937Z,39.89
2022-07-25T12:46:58.159Z,39.03
2022-07-25T12:48:01.098Z,38.78
2022-07-25T12:49:04.706Z,38.23
2022-07-25T12:50:09.610Z,38.30
2022-07-25T12:51:12.608Z,39.52
2022-07-25T12:52:14.648Z,38.67
2022-07-25T12:53:17.648Z,38.80
2022-07-25T12:54:22.559Z,39.02
2022-07-25T12:55:25.722Z,39.56
2022-07-25T12:56:27.802Z,38.67
2022-07-25T12:57:30.878Z,39.25
2022-07-25T12:58:33.049Z,36.95
2022-07-25T12:59:36.335Z,37.96
2022-07-25T13:00:38.526Z,37.32
2022-07-25T13:01:41.593Z,38.41
2022-07-25T13:02:45.316Z,38.37
2022-07-25T13:03:48.880Z,37.92
2022-07-25T13:04:50.847Z,37.73
2022-07-25T13:05:55.345Z,37.21
2022-07-25T13:06:58.311Z,37.84
2022-07-25T13:08:01.272Z,37.90
2022-07-25T13:09:03.739Z,38.43
2022-07-25T13:10:08.033Z,38.47
2022-07-25T13:11:12.595Z,38.12
2022-07-25T13:12:16.533Z,38.36
2022-07-25T13:13:19.752Z,38.21
2022-07-25T13:14:21.848Z,37.55
2022-07-25T13:15:28.203Z,36.80
2022-07-25T13:16:30.239Z,37.26
2022-07-25T13:17:33.716Z,37.51
2022-07-25T13:18:36.893Z,36.92
2022-07-25T13:19:39.970Z,37.49
2022-07-25T13:20:42.917Z,37.53
2022-07-25T13:21:46.276Z,36.82
2022-07-25T13:22:49.340Z,36.81
2022-07-25T13:23:52.325Z,37.64
2022-07-25T13:24:54.698Z,37.49
2022-07-25T13:25:57.711Z,37.53
2022-07-25T13:26:59.703Z,37.23
2022-07-25T13:28:04.061Z,36.25
2022-07-25T13:29:13.500Z,36.83
2022-07-25T13:30:16.673Z,36.40
2022-07-25T13:31:20.314Z,36.13
2022-07-25T13:32:26.026Z,35.94
2022-07-25T13:33:29.213Z,36.16
2022-07-25T13:34:31.208Z,36.16
2022-07-25T13:35:38.783Z,36.57
2022-07-25T13:36:41.251Z,35.44
2022-07-25T13:37:45.908Z,35.65
2022-07-25T13:38:47.973Z,35.35
2022-07-25T13:39:51.312Z,37.21
2022-07-25T13:40:58.434Z,36.37
2022-07-25T13:42:01.894Z,35.06
2022-07-25T13:43:04.878Z,36.17
2022-07-25T13:44:08.126Z,36.27